Time;durP1;ratioP1;P1;durP2;ratioP2;P2;SDS_P1;SDS_P2;PMS_P1;PMS_P2;Temp;Humidity;BMP_temperature;BMP_pressure;BME280_temperature;BME280_humidity;BME280_pressure;Samples;Min_cycle;Max_cycle;Signal;HPM_P1;HPM_P2
2024/01/12 00:01:18;;;;;;;21.50;6.65;;;2.10;99.90;;;;;;5074398;28;20135;-68
2024/01/12 00:03:44;;;;;;;19.40;7.65;;;2.20;99.90;;;;;;5074230;28;20492;-69
2024/01/12 00:06:10;;;;;;;11.82;6.70;;;2.20;99.90;;;;;;5056256;28;20042;-68
2024/01/12 00:08:39;;;;;;;15.27;7.15;;;2.20;99.90;;;;;;5073840;28;20044;-68
2024/01/12 00:11:08;;;;;;;13.60;5.72;;;2.20;99.90;;;;;;5074077;28;20036;-68
2024/01/12 00:13:34;;;;;;;16.70;7.20;;;2.10;99.90;;;;;;5073795;28;20090;-68
2024/01/12 00:16:05;;;;;;;14.30;6.18;;;2.10;99.90;;;;;;5073874;28;20052;-68
2024/01/12 00:18:30;;;;;;;18.35;7.05;;;2.20;99.90;;;;;;5073748;28;20044;-68
2024/01/12 00:20:56;;;;;;;17.63;6.65;;;2.40;99.90;;;;;;5073969;28;20051;-69
2024/01/12 00:23:21;;;;;;;15.23;5.97;;;2.30;99.90;;;;;;5072518;28;20514;-68
2024/01/12 00:25:47;;;;;;;14.68;6.00;;;2.30;99.90;;;;;;5073638;28;20041;-68
2024/01/12 00:28:13;;;;;;;13.43;6.05;;;2.20;99.90;;;;;;5073454;28;20044;-68
2024/01/12 00:30:38;;;;;;;17.02;6.38;;;2.40;99.90;;;;;;5073896;28;20039;-69
2024/01/12 00:33:05;;;;;;;15.38;6.18;;;2.40;99.90;;;;;;5073733;28;20106;-69
2024/01/12 00:35:31;;;;;;;14.48;5.97;;;2.30;99.90;;;;;;5055740;28;20080;-69
2024/01/12 00:37:57;;;;;;;12.13;5.57;;;2.40;99.90;;;;;;5073365;28;20072;-69
2024/01/12 00:40:23;;;;;;;16.98;6.50;;;2.40;99.90;;;;;;5055540;28;20498;-68
2024/01/12 00:42:50;;;;;;;10.25;5.60;;;2.30;99.90;;;;;;5073384;28;20089;-69
2024/01/12 00:45:16;;;;;;;11.15;5.50;;;2.30;99.90;;;;;;5073094;28;20412;-69
2024/01/12 00:47:42;;;;;;;14.98;5.85;;;2.50;99.90;;;;;;5055507;28;20041;-68
2024/01/12 00:50:08;;;;;;;18.45;6.57;;;2.40;99.90;;;;;;5073207;28;20033;-68
2024/01/12 00:52:34;;;;;;;14.65;5.75;;;2.40;99.90;;;;;;5073269;28;20032;-68
2024/01/12 00:55:00;;;;;;;13.73;5.47;;;2.50;99.90;;;;;;5055302;28;20108;-68
2024/01/12 00:57:26;;;;;;;14.32;5.13;;;2.60;99.90;;;;;;5073298;28;20101;-68
2024/01/12 00:59:51;;;;;;;13.82;6.00;;;2.50;99.90;;;;;;5073127;28;20044;-68
2024/01/12 01:02:17;;;;;;;11.55;5.93;;;2.40;99.90;;;;;;5073147;28;20573;-68
2024/01/12 01:04:43;;;;;;;11.18;5.50;;;2.70;99.90;;;;;;5072735;28;20036;-68
2024/01/12 01:07:08;;;;;;;14.35;6.45;;;2.50;99.90;;;;;;5072947;28;20037;-68
2024/01/12 01:09:34;;;;;;;12.50;6.05;;;2.50;99.90;;;;;;5072763;28;20554;-69
2024/01/12 01:12:00;;;;;;;14.30;6.20;;;2.70;99.90;;;;;;5055116;28;20036;-69
2024/01/12 01:14:26;;;;;;;12.60;6.30;;;2.70;99.90;;;;;;5054787;28;20044;-69
2024/01/12 01:16:52;;;;;;;15.68;6.80;;;2.60;99.90;;;;;;5072743;28;20041;-69
2024/01/12 01:19:18;;;;;;;17.77;6.60;;;2.60;99.90;;;;;;5072613;28;20037;-69
2024/01/12 01:21:43;;;;;;;10.30;5.65;;;2.60;99.90;;;;;;5072697;28;20078;-69
2024/01/12 01:24:09;;;;;;;13.73;6.90;;;2.60;99.90;;;;;;5072525;28;20059;-69
2024/01/12 01:26:35;;;;;;;13.63;5.43;;;2.60;99.90;;;;;;5054426;28;20043;-69
2024/01/12 01:29:00;;;;;;;12.82;5.93;;;2.60;99.90;;;;;;5072565;28;20515;-69
2024/01/12 01:31:26;;;;;;;11.90;5.03;;;2.80;99.90;;;;;;5037843;28;20037;-68
2024/01/12 01:33:52;;;;;;;13.65;5.97;;;2.80;99.90;;;;;;5072461;28;20068;-68
2024/01/12 01:36:17;;;;;;;13.35;5.43;;;2.80;99.90;;;;;;5072038;28;20514;-68
2024/01/12 01:38:43;;;;;;;8.05;5.20;;;2.60;99.90;;;;;;5071982;28;20072;-69
2024/01/12 01:41:08;;;;;;;9.38;4.93;;;2.80;99.90;;;;;;5072252;28;20072;-69
2024/01/12 01:43:34;;;;;;;10.55;6.38;;;2.80;99.90;;;;;;5072195;28;20115;-69
2024/01/12 01:46:00;;;;;;;12.30;4.65;;;2.70;99.90;;;;;;5072183;28;20484;-68
2024/01/12 01:48:26;;;;;;;10.65;5.22;;;2.70;99.90;;;;;;5071956;28;20036;-68
2024/01/12 01:50:53;;;;;;;10.05;4.75;;;2.80;99.90;;;;;;5072132;28;20139;-68
2024/01/12 01:53:19;;;;;;;11.27;5.72;;;2.90;99.90;;;;;;5071992;28;20067;-68
2024/01/12 01:55:45;;;;;;;7.55;4.43;;;2.90;99.90;;;;;;5072182;28;20541;-68
2024/01/12 01:58:11;;;;;;;11.38;5.28;;;3.00;99.90;;;;;;5071919;28;20072;-68
2024/01/12 02:00:39;;;;;;;11.48;4.63;;;2.80;99.90;;;;;;5071966;28;20538;-68
2024/01/12 02:03:05;;;;;;;9.90;4.82;;;3.00;99.90;;;;;;5072069;28;20166;-68
2024/01/12 02:05:34;;;;;;;8.10;4.22;;;2.90;99.90;;;;;;5071745;28;20097;-69
2024/01/12 02:07:59;;;;;;;16.58;4.82;;;2.90;99.90;;;;;;5071392;28;20041;-69
2024/01/12 02:10:25;;;;;;;9.57;4.40;;;2.80;99.90;;;;;;5053895;28;20407;-68
2024/01/12 02:12:51;;;;;;;10.68;5.95;;;2.90;99.90;;;;;;5072002;28;20074;-69
2024/01/12 02:15:18;;;;;;;14.15;5.18;;;3.00;99.90;;;;;;5071798;28;20037;-70
2024/01/12 02:17:43;;;;;;;13.48;5.07;;;2.80;99.90;;;;;;5071803;28;20134;-69
2024/01/12 02:20:09;;;;;;;8.40;4.50;;;3.00;99.90;;;;;;5053695;28;20080;-69
2024/01/12 02:22:35;;;;;;;9.77;5.07;;;3.00;99.90;;;;;;5071613;28;20043;-69
2024/01/12 02:25:01;;;;;;;13.82;4.93;;;3.00;99.90;;;;;;5071687;28;20032;-69
2024/01/12 02:27:27;;;;;;;10.48;6.10;;;2.90;99.90;;;;;;5071741;28;20044;-69
2024/01/12 02:29:54;;;;;;;12.20;6.05;;;3.10;99.90;;;;;;5071333;28;20408;-69
2024/01/12 02:32:20;;;;;;;10.75;5.30;;;3.10;99.90;;;;;;5036925;28;20040;-69
2024/01/12 02:34:46;;;;;;;12.82;6.00;;;3.00;99.90;;;;;;5071541;28;20051;-69
2024/01/12 02:37:12;;;;;;;8.13;5.15;;;3.00;99.90;;;;;;5071394;28;20033;-69
2024/01/12 02:39:37;;;;;;;11.95;5.45;;;3.10;99.90;;;;;;5053744;28;20105;-69
2024/01/12 02:42:03;;;;;;;8.10;4.97;;;3.00;99.90;;;;;;5071642;28;20054;-69
2024/01/12 02:44:29;;;;;;;13.43;4.95;;;3.10;99.90;;;;;;5071293;28;20500;-69
2024/01/12 02:46:54;;;;;;;8.98;4.55;;;3.10;99.90;;;;;;5054842;28;20044;-69
2024/01/12 02:49:20;;;;;;;13.63;5.47;;;2.90;99.90;;;;;;5057789;28;20028;-69
2024/01/12 02:51:46;;;;;;;9.68;5.60;;;3.00;99.90;;;;;;5075488;28;20069;-69
2024/01/12 02:54:11;;;;;;;15.40;5.80;;;3.10;99.90;;;;;;5057545;28;20045;-69
2024/01/12 02:56:37;;;;;;;13.65;5.80;;;3.00;99.90;;;;;;5075347;28;20033;-69
2024/01/12 02:59:03;;;;;;;10.18;5.20;;;3.20;99.90;;;;;;5075199;28;20048;-69
2024/01/12 03:01:28;;;;;;;12.05;5.45;;;3.00;99.90;;;;;;5075461;28;20032;-69
2024/01/12 03:03:54;;;;;;;16.38;6.45;;;2.90;99.90;;;;;;5057426;28;20047;-69
2024/01/12 03:06:20;;;;;;;9.50;4.63;;;2.80;99.90;;;;;;5057078;28;20036;-69
2024/01/12 03:08:46;;;;;;;12.98;6.65;;;2.80;99.90;;;;;;5075241;28;20063;-69
2024/01/12 03:11:11;;;;;;;9.45;4.65;;;2.90;99.90;;;;;;5075374;28;20492;-69
2024/01/12 03:13:37;;;;;;;8.25;5.00;;;2.80;99.90;;;;;;5075172;28;20037;-69
2024/01/12 03:16:03;;;;;;;8.95;4.85;;;2.80;99.90;;;;;;5075165;28;20517;-69
2024/01/12 03:18:31;;;;;;;9.13;4.85;;;2.60;99.90;;;;;;5056876;28;20045;-69
2024/01/12 03:20:57;;;;;;;7.93;4.32;;;2.60;99.90;;;;;;5057035;28;20047;-69
2024/01/12 03:23:24;;;;;;;8.93;4.70;;;2.70;99.90;;;;;;5057224;28;20044;-69
2024/01/12 03:25:49;;;;;;;8.82;4.43;;;2.60;99.90;;;;;;5056913;28;20040;-69
2024/01/12 03:28:15;;;;;;;8.57;4.85;;;2.40;99.90;;;;;;5074690;28;20037;-69
2024/01/12 03:30:41;;;;;;;9.27;4.93;;;2.60;99.90;;;;;;5074811;28;20040;-70
2024/01/12 03:33:08;;;;;;;14.55;5.32;;;2.60;99.90;;;;;;5056909;28;20123;-69
2024/01/12 03:35:35;;;;;;;10.93;5.03;;;2.60;99.90;;;;;;5074572;28;20048;-69
2024/01/12 03:38:01;;;;;;;11.02;4.88;;;2.50;99.90;;;;;;5056490;28;20612;-69
2024/01/12 03:40:27;;;;;;;8.05;4.20;;;2.40;99.90;;;;;;5074733;28;20039;-69
2024/01/12 03:42:52;;;;;;;10.13;4.45;;;2.50;99.90;;;;;;5056633;28;20044;-69
2024/01/12 03:45:18;;;;;;;7.68;4.22;;;2.40;99.90;;;;;;5110948;22;20149;-76
2024/01/12 03:47:43;;;;;;;9.05;4.82;;;2.40;99.90;;;;;;5099105;28;20389;-76
2024/01/12 03:50:09;;;;;;;10.95;5.40;;;2.30;99.90;;;;;;5098364;28;20047;-76
2024/01/12 03:52:35;;;;;;;12.52;4.75;;;2.40;99.90;;;;;;5081162;28;20043;-76
2024/01/12 03:55:01;;;;;;;14.80;4.70;;;2.40;99.90;;;;;;5099247;28;20118;-76
2024/01/12 03:57:26;;;;;;;14.07;5.00;;;2.30;99.90;;;;;;5097525;28;20051;-76
2024/01/12 03:59:52;;;;;;;8.10;4.82;;;2.40;99.90;;;;;;5097207;28;20044;-76
2024/01/12 04:02:18;;;;;;;11.38;5.28;;;2.40;99.90;;;;;;5095577;28;20407;-76
2024/01/12 04:04:44;;;;;;;12.52;5.00;;;2.60;99.90;;;;;;5095967;28;20156;-76
2024/01/12 04:07:10;;;;;;;9.80;4.68;;;2.60;99.90;;;;;;5099058;28;20057;-76
2024/01/12 04:09:35;;;;;;;8.48;4.63;;;2.40;99.90;;;;;;5098239;28;20605;-76
2024/01/12 04:12:02;;;;;;;10.40;4.75;;;2.30;99.90;;;;;;5096457;28;20442;-76
2024/01/12 04:14:28;;;;;;;10.80;4.88;;;2.40;99.90;;;;;;5094947;28;20222;-76
2024/01/12 04:16:53;;;;;;;9.05;4.30;;;2.40;99.90;;;;;;5096905;28;20562;-76
2024/01/12 04:19:19;;;;;;;9.30;4.85;;;2.40;99.90;;;;;;5096717;28;20078;-76
2024/01/12 04:21:45;;;;;;;12.25;5.03;;;2.40;99.90;;;;;;5094459;28;20474;-76
2024/01/12 04:24:11;;;;;;;10.38;4.53;;;2.50;99.90;;;;;;5095796;28;20051;-76
2024/01/12 04:26:37;;;;;;;12.93;4.65;;;2.40;99.90;;;;;;5097783;28;20032;-77
2024/01/12 04:29:03;;;;;;;9.80;4.57;;;2.60;99.90;;;;;;5099942;28;20107;-76
2024/01/12 04:31:29;;;;;;;11.30;4.57;;;2.40;99.90;;;;;;5101252;28;20120;-76
2024/01/12 04:33:55;;;;;;;7.43;4.45;;;2.60;99.90;;;;;;5100246;28;20072;-76
2024/01/12 04:36:24;;;;;;;12.55;4.40;;;2.40;99.90;;;;;;5097830;28;20407;-76
2024/01/12 04:38:49;;;;;;;8.63;4.38;;;2.50;99.90;;;;;;5101165;28;20068;-76
2024/01/12 04:41:15;;;;;;;8.98;4.45;;;2.50;99.90;;;;;;5100138;28;20044;-76
2024/01/12 04:43:41;;;;;;;11.23;4.82;;;2.60;99.90;;;;;;5099970;28;20083;-76
2024/01/12 04:46:06;;;;;;;9.80;4.47;;;2.60;99.90;;;;;;5100392;28;20115;-76
2024/01/12 04:48:32;;;;;;;8.15;4.45;;;2.40;99.90;;;;;;5097783;28;20040;-76
2024/01/12 04:50:58;;;;;;;12.05;5.30;;;2.70;99.90;;;;;;5097823;28;20032;-76
2024/01/12 04:53:24;;;;;;;9.98;4.72;;;2.70;99.90;;;;;;5096336;28;20044;-76
2024/01/12 04:55:50;;;;;;;8.82;4.47;;;2.70;99.90;;;;;;5096204;28;20172;-76
2024/01/12 04:58:15;;;;;;;6.82;5.00;;;2.70;99.90;;;;;;5098054;28;20066;-76
2024/01/12 05:00:41;;;;;;;9.85;4.53;;;2.60;99.90;;;;;;5095970;28;20036;-76
2024/01/12 05:03:07;;;;;;;15.82;4.70;;;2.60;99.90;;;;;;5096520;28;20024;-76
2024/01/12 05:05:33;;;;;;;10.93;5.32;;;2.80;99.90;;;;;;5097621;28;20089;-76
2024/01/12 05:07:58;;;;;;;10.60;5.18;;;2.60;99.90;;;;;;5096125;28;20040;-76
2024/01/12 05:10:24;;;;;;;11.27;4.10;;;2.60;99.90;;;;;;5096280;28;20455;-76
2024/01/12 05:12:49;;;;;;;8.15;3.63;;;2.70;99.90;;;;;;5097424;28;20040;-76
2024/01/12 05:15:15;;;;;;;10.30;4.90;;;2.50;99.90;;;;;;5097776;28;20044;-76
2024/01/12 05:17:40;;;;;;;13.70;5.03;;;2.70;99.90;;;;;;5096105;28;20499;-76
2024/01/12 05:20:06;;;;;;;6.85;4.72;;;2.60;99.90;;;;;;5092716;28;20036;-76
2024/01/12 05:22:33;;;;;;;11.10;4.20;;;2.70;99.90;;;;;;5097051;28;20052;-76
2024/01/12 05:24:59;;;;;;;7.68;3.95;;;2.60;99.90;;;;;;5096175;28;20039;-76
2024/01/12 05:27:24;;;;;;;10.10;4.97;;;2.60;99.90;;;;;;5096195;28;20040;-76
2024/01/12 05:29:50;;;;;;;9.60;4.20;;;2.70;99.90;;;;;;5096393;28;20450;-76
2024/01/12 05:32:16;;;;;;;9.65;4.00;;;2.50;99.90;;;;;;5095872;28;20032;-76
2024/01/12 05:34:41;;;;;;;10.45;4.95;;;2.60;99.90;;;;;;5078947;28;20072;-76
2024/01/12 05:37:07;;;;;;;6.65;4.20;;;2.60;99.90;;;;;;5096664;28;20028;-76
2024/01/12 05:39:32;;;;;;;7.22;4.45;;;2.50;99.90;;;;;;5096956;28;20063;-76
2024/01/12 05:41:58;;;;;;;10.82;4.47;;;2.60;99.90;;;;;;5096864;28;20089;-76
2024/01/12 05:44:23;;;;;;;10.27;4.55;;;2.30;99.90;;;;;;5095286;28;20396;-76
2024/01/12 05:46:49;;;;;;;9.23;4.32;;;2.30;99.90;;;;;;5092925;28;20039;-76
2024/01/12 05:49:15;;;;;;;12.90;4.30;;;2.30;99.90;;;;;;5092316;28;20048;-76
2024/01/12 05:51:40;;;;;;;13.13;5.28;;;2.30;99.90;;;;;;5093768;28;20024;-76
2024/01/12 05:54:06;;;;;;;12.80;5.80;;;2.20;99.90;;;;;;5093737;28;20040;-76
2024/01/12 05:56:31;;;;;;;11.85;5.30;;;2.20;99.90;;;;;;5094594;28;20043;-76
2024/01/12 05:58:57;;;;;;;15.52;5.35;;;2.30;99.90;;;;;;5095512;28;20047;-76
2024/01/12 06:01:23;;;;;;;13.18;4.60;;;2.20;99.90;;;;;;5097110;28;20403;-76
2024/01/12 06:03:48;;;;;;;17.33;4.95;;;2.10;99.90;;;;;;5075490;28;20056;-76
2024/01/12 06:06:14;;;;;;;11.13;5.07;;;2.40;99.90;;;;;;5074589;28;20043;-76
2024/01/12 06:08:39;;;;;;;12.52;4.93;;;2.30;99.90;;;;;;5091771;28;20086;-76
2024/01/12 06:11:05;;;;;;;10.73;5.28;;;2.20;99.90;;;;;;5093252;28;20072;-76
2024/01/12 06:13:31;;;;;;;15.90;6.38;;;2.40;99.90;;;;;;5092142;28;20044;-76
2024/01/12 06:15:57;;;;;;;18.05;5.38;;;2.20;99.90;;;;;;5092854;28;20059;-76
2024/01/12 06:18:22;;;;;;;13.38;4.95;;;2.30;99.90;;;;;;5091463;28;20039;-76
2024/01/12 06:20:48;;;;;;;11.90;5.90;;;2.20;99.90;;;;;;5098782;28;20078;-76
2024/01/12 06:23:14;;;;;;;11.98;5.68;;;2.50;99.90;;;;;;5097469;28;20039;-76
2024/01/12 06:25:40;;;;;;;15.57;6.65;;;2.10;99.90;;;;;;5096373;28;20085;-76
2024/01/12 06:28:06;;;;;;;18.10;5.97;;;2.30;99.90;;;;;;5096257;28;20044;-76
2024/01/12 06:30:31;;;;;;;18.17;5.78;;;2.20;99.90;;;;;;5095482;28;20085;-76
2024/01/12 06:32:58;;;;;;;19.73;5.63;;;2.30;99.90;;;;;;5095755;28;20048;-76
2024/01/12 06:35:24;;;;;;;15.82;5.25;;;2.30;99.90;;;;;;5095486;28;20054;-76
2024/01/12 06:37:50;;;;;;;13.65;5.90;;;2.50;99.90;;;;;;5096671;28;20040;-76
2024/01/12 06:40:15;;;;;;;12.52;5.40;;;2.20;99.90;;;;;;5095890;28;20511;-76
2024/01/12 06:42:41;;;;;;;15.15;6.05;;;2.60;99.90;;;;;;5096373;28;20040;-76
2024/01/12 06:45:09;;;;;;;14.48;6.30;;;2.20;99.90;;;;;;5095466;28;20056;-76
2024/01/12 06:47:35;;;;;;;13.30;6.70;;;2.20;99.90;;;;;;5091135;28;20073;-76
2024/01/12 06:50:01;;;;;;;15.88;5.78;;;2.20;99.90;;;;;;5093190;28;20032;-76
2024/01/12 06:52:29;;;;;;;12.57;5.63;;;2.40;99.90;;;;;;5097254;28;20047;-76
2024/01/12 06:54:55;;;;;;;13.50;6.40;;;2.40;99.90;;;;;;5094413;28;20047;-76
2024/01/12 06:57:21;;;;;;;15.43;6.22;;;2.40;99.90;;;;;;5099037;28;20040;-76
2024/01/12 06:59:46;;;;;;;19.13;5.57;;;2.60;99.90;;;;;;5099803;28;20094;-76
2024/01/12 07:02:12;;;;;;;10.80;6.10;;;2.60;99.90;;;;;;5099119;28;20040;-76
2024/01/12 07:04:37;;;;;;;16.60;6.38;;;2.60;99.90;;;;;;5096717;28;20427;-76
2024/01/12 07:07:03;;;;;;;21.38;6.50;;;2.70;99.90;;;;;;5100473;28;20052;-76
2024/01/12 07:09:29;;;;;;;17.65;6.00;;;2.40;99.90;;;;;;5082748;28;20035;-76
2024/01/12 07:11:54;;;;;;;12.10;5.70;;;2.50;99.90;;;;;;5099943;28;20086;-76
2024/01/12 07:14:20;;;;;;;21.40;5.20;;;2.80;99.90;;;;;;5097324;28;20392;-76
2024/01/12 07:16:46;;;;;;;15.82;5.53;;;2.60;99.90;;;;;;5096959;28;20032;-76
2024/01/12 07:19:12;;;;;;;16.60;5.72;;;2.60;99.90;;;;;;5098607;28;20673;-77
2024/01/12 07:21:37;;;;;;;15.02;6.13;;;2.60;99.90;;;;;;5099411;28;20100;-77
2024/01/12 07:24:03;;;;;;;18.77;6.22;;;2.60;99.90;;;;;;5100089;28;20040;-77
2024/01/12 07:26:29;;;;;;;16.15;5.38;;;2.80;99.90;;;;;;5081339;28;20062;-77
2024/01/12 07:28:55;;;;;;;17.70;6.30;;;2.70;99.90;;;;;;5103046;28;20040;-77
2024/01/12 07:31:21;;;;;;;12.77;5.60;;;2.60;99.90;;;;;;5102330;28;20036;-77
2024/01/12 07:33:46;;;;;;;21.08;7.20;;;2.90;99.90;;;;;;5102975;28;20044;-76
2024/01/12 07:36:12;;;;;;;12.93;5.20;;;2.80;99.90;;;;;;5103361;28;20036;-77
2024/01/12 07:38:37;;;;;;;16.25;6.00;;;2.80;99.90;;;;;;5103476;28;20043;-76
2024/01/12 07:41:03;;;;;;;19.80;5.97;;;2.60;99.90;;;;;;5103096;28;20101;-77
2024/01/12 07:43:30;;;;;;;17.02;5.60;;;3.00;99.90;;;;;;5084205;28;20442;-77
2024/01/12 07:45:56;;;;;;;16.80;5.32;;;2.80;99.90;;;;;;5098890;28;20043;-77
2024/01/12 07:48:22;;;;;;;21.05;5.53;;;2.90;99.90;;;;;;5102656;28;20411;-76
2024/01/12 07:50:49;;;;;;;15.75;5.78;;;3.00;99.90;;;;;;5102513;28;20032;-76
2024/01/12 07:53:14;;;;;;;19.30;5.20;;;2.70;99.90;;;;;;5103041;28;20035;-76
2024/01/12 07:55:40;;;;;;;12.27;5.18;;;3.00;99.90;;;;;;5100903;28;20553;-76
2024/01/12 07:58:06;;;;;;;15.65;5.38;;;3.00;99.90;;;;;;5100513;28;20517;-76
2024/01/12 08:00:31;;;;;;;19.95;5.93;;;3.00;99.90;;;;;;5100432;28;20035;-77
2024/01/12 08:02:57;;;;;;;19.13;6.72;;;2.90;99.90;;;;;;5096619;28;20449;-77
2024/01/12 08:05:23;;;;;;;15.30;5.38;;;3.10;99.90;;;;;;5096928;28;20032;-78
2024/01/12 08:07:51;;;;;;;13.90;6.07;;;2.90;99.90;;;;;;5077694;28;20051;-76
2024/01/12 08:10:18;;;;;;;16.73;5.20;;;2.80;99.90;;;;;;5094621;28;20651;-75
2024/01/12 08:12:48;;;;;;;10.48;4.97;;;3.10;99.90;;;;;;5093145;28;20467;-75
2024/01/12 08:15:14;;;;;;;18.02;4.95;;;3.10;99.90;;;;;;5093148;28;20040;-75
2024/01/12 08:17:40;;;;;;;26.83;5.18;;;3.00;99.90;;;;;;5079220;28;20384;-76
2024/01/12 08:20:06;;;;;;;14.00;4.13;;;3.00;99.90;;;;;;5078822;28;20040;-76
2024/01/12 08:22:32;;;;;;;12.80;6.00;;;3.20;99.90;;;;;;5080189;28;20040;-76
2024/01/12 08:24:58;;;;;;;18.77;6.45;;;3.00;99.90;;;;;;5097518;28;20093;-76
2024/01/12 08:27:24;;;;;;;15.23;5.03;;;3.10;99.90;;;;;;5076950;28;20070;-75
2024/01/12 08:29:50;;;;;;;15.77;4.60;;;3.20;99.90;;;;;;5097181;28;20078;-76
2024/01/12 08:32:16;;;;;;;14.63;4.45;;;3.30;99.90;;;;;;5095610;28;20501;-76
2024/01/12 08:34:41;;;;;;;20.38;4.78;;;3.00;99.90;;;;;;5092032;28;20036;-75
2024/01/12 08:37:07;;;;;;;14.13;5.30;;;3.30;99.90;;;;;;5097699;28;20028;-75
2024/01/12 08:39:34;;;;;;;16.95;4.40;;;3.20;99.90;;;;;;5077507;28;20051;-76
2024/01/12 08:41:59;;;;;;;15.73;5.88;;;3.30;99.90;;;;;;5093253;28;20036;-76
2024/01/12 08:44:25;;;;;;;15.80;4.22;;;3.10;99.90;;;;;;5075606;28;20422;-76
2024/01/12 08:46:53;;;;;;;22.95;5.75;;;3.30;99.90;;;;;;5095875;28;20139;-76
2024/01/12 08:49:20;;;;;;;9.75;3.92;;;3.30;99.90;;;;;;5095275;28;20423;-75
2024/01/12 08:51:51;;;;;;;18.80;3.75;;;3.40;99.90;;;;;;5094332;28;20085;-76
2024/01/12 08:54:17;;;;;;;15.77;4.13;;;3.40;99.90;;;;;;5095801;28;20051;-76
2024/01/12 08:56:42;;;;;;;14.23;3.65;;;3.30;99.90;;;;;;5095626;28;20040;-76
2024/01/12 08:59:09;;;;;;;12.38;3.75;;;3.30;99.90;;;;;;5096798;28;20040;-76
2024/01/12 09:01:35;;;;;;;13.73;4.53;;;3.50;99.90;;;;;;5100248;28;20435;-75
2024/01/12 09:04:01;;;;;;;16.60;3.97;;;3.60;99.90;;;;;;5094770;28;20044;-76
2024/01/12 09:06:29;;;;;;;17.77;4.55;;;3.40;99.90;;;;;;5094485;28;20115;-76
2024/01/12 09:08:55;;;;;;;12.55;4.13;;;3.50;99.90;;;;;;5092549;28;20036;-76
2024/01/12 09:11:21;;;;;;;14.32;3.65;;;3.60;99.90;;;;;;5093493;28;20028;-76
2024/01/12 09:13:47;;;;;;;14.70;4.00;;;3.70;99.90;;;;;;5075538;28;20373;-76
2024/01/12 09:16:13;;;;;;;12.77;4.10;;;3.70;99.90;;;;;;5094581;28;20468;-76
2024/01/12 09:18:39;;;;;;;13.35;3.95;;;3.60;99.90;;;;;;5093755;28;20099;-75
2024/01/12 09:21:05;;;;;;;12.85;3.53;;;3.70;99.90;;;;;;5091603;28;20503;-76
2024/01/12 09:23:31;;;;;;;17.42;3.70;;;3.80;99.90;;;;;;5075243;28;20086;-76
2024/01/12 09:25:57;;;;;;;12.35;3.25;;;3.70;99.90;;;;;;5092943;28;20032;-76
2024/01/12 09:28:22;;;;;;;11.68;3.80;;;3.80;99.90;;;;;;5096445;28;20058;-77
2024/01/12 09:30:48;;;;;;;14.57;4.25;;;3.80;99.90;;;;;;5096016;28;20075;-77
2024/01/12 09:33:14;;;;;;;14.07;3.80;;;3.80;99.90;;;;;;5096208;28;20605;-77
2024/01/12 09:35:40;;;;;;;17.25;3.50;;;3.80;99.90;;;;;;5095613;28;20036;-76
2024/01/12 09:38:06;;;;;;;15.15;4.00;;;3.80;99.90;;;;;;5097003;28;20071;-76
2024/01/12 09:40:33;;;;;;;16.48;3.63;;;4.00;99.90;;;;;;5097804;28;20051;-75
2024/01/12 09:43:00;;;;;;;15.45;3.17;;;3.90;99.90;;;;;;5094285;28;20046;-75
2024/01/12 09:45:26;;;;;;;15.23;3.30;;;4.00;99.90;;;;;;5126527;22;20039;-69
2024/01/12 09:47:53;;;;;;;11.73;3.47;;;3.90;99.90;;;;;;5129496;27;20320;-69
2024/01/12 09:50:22;;;;;;;15.27;3.13;;;4.00;99.90;;;;;;5129266;27;20059;-69
2024/01/12 09:52:49;;;;;;;14.05;3.90;;;4.10;99.90;;;;;;5119964;27;20486;-69
2024/01/12 09:55:14;;;;;;;14.05;3.70;;;4.10;99.90;;;;;;5112535;28;20111;-69
2024/01/12 09:57:41;;;;;;;13.40;3.97;;;4.10;99.90;;;;;;5113035;28;20036;-69
2024/01/12 10:00:09;;;;;;;13.50;3.20;;;3.90;99.90;;;;;;5111853;28;20063;-69
2024/01/12 10:02:34;;;;;;;14.82;4.10;;;4.10;99.90;;;;;;5111882;28;20044;-69
2024/01/12 10:05:00;;;;;;;11.05;3.05;;;4.00;99.90;;;;;;5109678;28;20456;-69
2024/01/12 10:07:26;;;;;;;15.23;4.40;;;4.00;99.90;;;;;;5111234;28;20410;-70
2024/01/12 10:09:53;;;;;;;21.63;3.53;;;4.00;99.90;;;;;;5112426;28;20036;-69
2024/01/12 10:12:18;;;;;;;15.02;2.67;;;4.10;99.90;;;;;;5111640;28;20044;-69
2024/01/12 10:14:44;;;;;;;17.00;3.15;;;4.10;99.90;;;;;;5109553;28;20035;-69
2024/01/12 10:17:11;;;;;;;16.58;4.10;;;4.00;99.90;;;;;;5110619;28;20039;-69
2024/01/12 10:19:37;;;;;;;12.60;3.03;;;4.20;99.90;;;;;;5111534;28;20036;-69
2024/01/12 10:22:03;;;;;;;15.95;2.90;;;4.10;99.90;;;;;;5110906;28;20031;-69
2024/01/12 10:24:30;;;;;;;18.75;3.67;;;4.20;99.90;;;;;;5112425;28;20032;-69
2024/01/12 10:27:02;;;;;;;16.23;3.00;;;4.20;99.90;;;;;;5112151;28;20118;-72
2024/01/12 10:29:27;;;;;;;15.70;3.22;;;4.30;99.90;;;;;;5111852;28;20050;-72
2024/01/12 10:31:53;;;;;;;21.17;3.47;;;4.30;99.90;;;;;;5110471;28;20036;-72
2024/01/12 10:34:21;;;;;;;12.38;3.30;;;4.20;99.90;;;;;;5110838;28;20045;-72
2024/01/12 10:36:52;;;;;;;14.38;3.28;;;4.30;99.90;;;;;;5112229;28;20040;-72
2024/01/12 10:39:19;;;;;;;10.52;2.83;;;4.30;99.90;;;;;;5112084;28;20036;-72
2024/01/12 10:41:46;;;;;;;9.73;2.40;;;4.10;99.90;;;;;;5112205;28;20054;-72
2024/01/12 10:44:15;;;;;;;15.02;2.40;;;4.30;99.90;;;;;;5111924;28;20518;-72
2024/01/12 10:46:45;;;;;;;14.20;2.75;;;4.30;99.90;;;;;;5110672;28;20040;-72
2024/01/12 10:49:19;;;;;;;12.85;2.88;;;4.40;99.90;;;;;;5112136;28;20043;-72
2024/01/12 10:52:22;;;;;;;14.13;2.47;;;4.40;99.90;;;;;;5110710;28;20487;-71
2024/01/12 10:54:56;;;;;;;15.75;3.33;;;4.30;99.90;;;;;;5111990;28;20538;-71
2024/01/12 10:57:22;;;;;;;9.32;3.25;;;4.40;99.90;;;;;;5093733;28;20067;-71
2024/01/12 10:59:49;;;;;;;14.93;2.38;;;4.30;99.90;;;;;;5111965;28;20035;-71
2024/01/12 11:02:15;;;;;;;17.10;3.83;;;4.60;99.90;;;;;;5112088;28;20040;-71
2024/01/12 11:04:45;;;;;;;15.50;3.80;;;4.40;99.90;;;;;;5110431;28;20493;-71
2024/01/12 11:07:12;;;;;;;12.57;3.00;;;4.70;99.90;;;;;;5110785;28;20052;-71
2024/01/12 11:09:37;;;;;;;8.82;2.80;;;4.50;99.90;;;;;;5114558;28;20028;-71
2024/01/12 11:12:04;;;;;;;17.88;3.42;;;4.50;99.90;;;;;;5116196;28;20697;-71
2024/01/12 11:14:31;;;;;;;11.43;2.70;;;4.40;99.90;;;;;;5116000;28;20399;-71
2024/01/12 11:16:57;;;;;;;16.15;3.13;;;4.30;99.90;;;;;;5116012;28;20108;-71
2024/01/12 11:19:25;;;;;;;13.02;3.85;;;4.20;99.90;;;;;;5115739;28;20114;-70
2024/01/12 11:22:02;;;;;;;16.80;4.18;;;4.30;99.90;;;;;;5115558;28;20094;-70
2024/01/12 11:24:28;;;;;;;17.67;3.90;;;4.60;99.90;;;;;;5112985;28;20043;-70
2024/01/12 11:26:55;;;;;;;8.68;3.60;;;4.60;99.90;;;;;;5114113;28;20440;-69
2024/01/12 11:29:20;;;;;;;11.10;2.72;;;4.80;99.90;;;;;;5115530;28;20044;-70
2024/01/12 11:31:50;;;;;;;19.40;4.03;;;4.90;99.90;;;;;;5115484;28;20032;-70
2024/01/12 11:34:18;;;;;;;18.83;4.28;;;4.90;99.90;;;;;;5115407;27;20036;-70
2024/01/12 11:36:43;;;;;;;16.98;3.85;;;4.80;99.90;;;;;;5115229;28;20043;-70
2024/01/12 11:39:12;;;;;;;17.13;3.22;;;5.00;99.90;;;;;;5115432;28;20533;-70
2024/01/12 11:41:46;;;;;;;14.30;3.65;;;5.00;99.90;;;;;;5114864;28;20118;-70
2024/01/12 11:44:12;;;;;;;9.90;2.83;;;4.80;99.90;;;;;;5112736;28;20050;-70
2024/01/12 11:46:38;;;;;;;12.70;3.90;;;5.10;99.90;;;;;;5114773;28;20040;-70
2024/01/12 11:49:04;;;;;;;11.30;3.10;;;4.90;99.90;;;;;;5114783;28;20071;-70
2024/01/12 11:51:30;;;;;;;10.60;3.38;;;5.10;99.90;;;;;;5115415;28;20129;-70
2024/01/12 11:53:58;;;;;;;16.33;3.97;;;5.10;99.90;;;;;;5115258;28;20063;-70
2024/01/12 11:56:25;;;;;;;17.88;3.22;;;5.10;99.90;;;;;;5114777;28;20075;-70
2024/01/12 11:58:52;;;;;;;13.43;4.22;;;5.00;99.90;;;;;;5114934;28;20042;-70
2024/01/12 12:01:19;;;;;;;18.90;4.57;;;5.00;99.90;;;;;;5113299;28;20047;-71
2024/01/12 12:03:45;;;;;;;16.70;3.28;;;5.20;99.90;;;;;;5094361;28;20044;-71
2024/01/12 12:06:12;;;;;;;20.90;3.20;;;5.00;99.90;;;;;;5093507;28;20134;-70
2024/01/12 12:08:41;;;;;;;17.70;2.95;;;5.10;99.90;;;;;;5094298;28;20036;-71
2024/01/12 12:11:07;;;;;;;11.63;3.80;;;5.10;99.90;;;;;;5093106;28;20639;-70
2024/01/12 12:13:33;;;;;;;19.70;3.28;;;5.10;99.90;;;;;;5094438;28;20036;-70
2024/01/12 12:15:59;;;;;;;20.92;3.38;;;5.20;99.90;;;;;;5093160;28;20448;-71
2024/01/12 12:18:25;;;;;;;15.82;2.80;;;5.20;99.90;;;;;;5092454;28;20050;-71
2024/01/12 12:20:51;;;;;;;13.15;2.65;;;5.10;99.90;;;;;;5094078;28;20069;-71
2024/01/12 12:23:17;;;;;;;9.90;2.90;;;5.20;99.90;;;;;;5094284;28;20040;-71
2024/01/12 12:25:42;;;;;;;16.75;4.22;;;5.20;99.90;;;;;;5092694;28;20040;-70
2024/01/12 12:28:08;;;;;;;19.77;3.95;;;5.20;99.90;;;;;;5093679;28;20356;-70
2024/01/12 12:30:35;;;;;;;11.00;2.95;;;5.10;99.90;;;;;;5093820;28;20067;-70
2024/01/12 12:33:01;;;;;;;19.55;4.55;;;5.10;99.90;;;;;;5099338;28;20054;-71
2024/01/12 12:35:26;;;;;;;13.95;3.97;;;5.20;99.90;;;;;;5113754;28;20035;-71
2024/01/12 12:37:52;;;;;;;18.42;3.60;;;5.20;99.90;;;;;;5114006;28;20047;-71
2024/01/12 12:40:19;;;;;;;11.38;2.95;;;5.20;99.90;;;;;;5114360;28;20418;-71
2024/01/12 12:42:46;;;;;;;11.00;3.22;;;5.20;99.90;;;;;;5114251;28;20538;-71